createdAt,value
2023-01-26T00:00:40.322Z,73.80
2023-01-26T00:03:08.125Z,72.18
2023-01-26T00:05:38.142Z,73.17
2023-01-26T00:08:08.636Z,72.60
2023-01-26T00:10:40.974Z,72.43
2023-01-26T00:13:10.111Z,72.02
2023-01-26T00:15:38.851Z,70.96
2023-01-26T00:18:12.973Z,70.72
2023-01-26T00:20:42.951Z,72.69
2023-01-26T00:23:10.705Z,73.75
2023-01-26T00:25:47.068Z,79.33
2023-01-26T00:28:14.945Z,78.78
2023-01-26T00:30:42.820Z,77.94
2023-01-26T00:33:19.196Z,76.18
2023-01-26T00:36:05.462Z,75.52
2023-01-26T00:38:33.425Z,75.16
2023-01-26T00:41:07.433Z,75.23
2023-01-26T00:43:38.188Z,75.31
2023-01-26T00:46:12.188Z,74.47
2023-01-26T00:48:40.055Z,73.99
2023-01-26T00:51:07.810Z,72.76
2023-01-26T00:53:35.896Z,72.87
2023-01-26T00:56:05.327Z,74.21
2023-01-26T00:58:33.187Z,74.61
2023-01-26T01:01:01.152Z,73.64
2023-01-26T01:03:31.677Z,72.75
2023-01-26T01:06:02.469Z,73.99
2023-01-26T01:08:32.959Z,72.59
2023-01-26T01:11:10.496Z,73.00
2023-01-26T01:13:39.199Z,72.84
2023-01-26T01:16:10.569Z,70.94
2023-01-26T01:18:38.618Z,71.36
2023-01-26T01:21:13.039Z,71.94
2023-01-26T01:23:47.065Z,72.65
2023-01-26T01:26:19.606Z,72.13
2023-01-26T01:28:47.568Z,72.48
2023-01-26T01:31:17.103Z,73.49
2023-01-26T01:33:45.359Z,71.67
2023-01-26T01:36:15.112Z,70.84
2023-01-26T01:38:48.581Z,70.62
2023-01-26T01:41:20.845Z,69.97
2023-01-26T01:43:53.110Z,70.99
2023-01-26T01:46:29.694Z,71.22
2023-01-26T01:49:04.377Z,71.73
2023-01-26T01:51:35.227Z,72.58
2023-01-26T01:54:09.958Z,72.47
2023-01-26T01:56:40.424Z,72.33
2023-01-26T01:59:10.882Z,71.94
2023-01-26T02:01:43.651Z,70.74
2023-01-26T02:04:13.648Z,70.64
2023-01-26T02:06:53.445Z,70.86
2023-01-26T02:09:46.438Z,69.91
2023-01-26T02:12:16.158Z,69.58
2023-01-26T02:14:47.714Z,69.42
2023-01-26T02:17:20.127Z,71.31
2023-01-26T02:19:58.776Z,72.89
2023-01-26T02:22:35.921Z,71.18
2023-01-26T02:25:08.128Z,71.21
2023-01-26T02:27:37.582Z,72.08
2023-01-26T02:30:07.824Z,72.95
2023-01-26T02:32:35.833Z,73.23
2023-01-26T02:35:03.625Z,71.48
2023-01-26T02:37:31.557Z,70.30
2023-01-26T02:40:03.419Z,70.67
2023-01-26T02:42:38.928Z,70.04
2023-01-26T02:45:09.707Z,69.37
2023-01-26T02:47:37.582Z,72.00
2023-01-26T02:50:05.220Z,70.37
2023-01-26T02:52:33.068Z,72.10
2023-01-26T02:55:27.002Z,71.03
2023-01-26T02:57:59.357Z,72.15
2023-01-26T03:00:31.749Z,70.13
2023-01-26T03:03:01.128Z,68.39
2023-01-26T03:05:30.250Z,68.44
2023-01-26T03:07:58.348Z,68.66
2023-01-26T03:10:30.963Z,69.09
2023-01-26T03:12:58.983Z,70.69
2023-01-26T03:15:45.567Z,71.01
2023-01-26T03:18:30.699Z,71.00
2023-01-26T03:21:17.260Z,71.44
2023-01-26T03:24:02.749Z,72.78
2023-01-26T03:26:47.887Z,72.77
2023-01-26T03:29:26.697Z,70.18
2023-01-26T03:31:54.803Z,69.00
2023-01-26T03:34:29.599Z,68.51
2023-01-26T03:37:03.130Z,70.28
2023-01-26T03:39:48.394Z,71.21
2023-01-26T03:42:33.909Z,71.43
2023-01-26T03:45:18.981Z,69.48
2023-01-26T03:48:04.400Z,70.33
2023-01-26T03:50:51.542Z,69.98
2023-01-26T03:53:41.317Z,71.95
2023-01-26T03:56:22.155Z,71.51
2023-01-26T03:58:53.529Z,70.29
2023-01-26T04:01:27.571Z,69.25
2023-01-26T04:04:14.371Z,70.81
2023-01-26T04:07:03.202Z,70.11
2023-01-26T04:09:31.532Z,74.06
2023-01-26T04:12:00.513Z,73.00
2023-01-26T04:14:48.953Z,72.53
2023-01-26T04:17:36.533Z,73.92
2023-01-26T04:20:22.856Z,74.97
2023-01-26T04:22:52.108Z,76.44
2023-01-26T04:25:23.594Z,76.80
2023-01-26T04:27:52.309Z,77.34
2023-01-26T04:30:24.693Z,77.91
2023-01-26T04:32:54.288Z,78.24
2023-01-26T04:35:25.086Z,79.20
2023-01-26T04:37:54.279Z,79.41
2023-01-26T04:40:22.188Z,78.91
2023-01-26T04:42:50.579Z,78.46
2023-01-26T04:45:21.801Z,77.34
2023-01-26T04:47:52.575Z,78.91
2023-01-26T04:50:20.785Z,79.70
2023-01-26T04:52:48.724Z,81.49
2023-01-26T04:55:20.966Z,83.18
2023-01-26T04:57:51.709Z,85.47
2023-01-26T05:00:21.548Z,83.88
2023-01-26T05:02:52.074Z,82.15
2023-01-26T05:05:25.657Z,83.19
2023-01-26T05:07:53.490Z,83.44
2023-01-26T05:10:33.859Z,82.42
2023-01-26T05:13:06.813Z,79.52
2023-01-26T05:15:37.392Z,78.75
2023-01-26T05:18:07.506Z,81.85
2023-01-26T05:20:35.371Z,82.47
2023-01-26T05:23:09.446Z,82.22
2023-01-26T05:25:38.855Z,80.07
2023-01-26T05:28:12.304Z,80.92
2023-01-26T05:30:42.748Z,83.92
2023-01-26T05:33:13.293Z,80.25
2023-01-26T05:35:41.274Z,79.46
2023-01-26T05:38:12.095Z,79.95
2023-01-26T05:40:54.956Z,79.35
2023-01-26T05:43:25.764Z,78.76
2023-01-26T05:45:56.208Z,79.30
2023-01-26T05:48:24.006Z,79.11
2023-01-26T05:50:54.875Z,78.43
2023-01-26T05:53:24.037Z,79.93
2023-01-26T05:55:53.425Z,77.40
2023-01-26T05:58:22.369Z,76.82
2023-01-26T06:00:50.552Z,76.39
2023-01-26T06:03:22.308Z,78.21
2023-01-26T06:05:54.827Z,77.23
2023-01-26T06:08:22.764Z,77.61
2023-01-26T06:10:50.602Z,76.46
2023-01-26T06:13:19.977Z,79.02
2023-01-26T06:15:50.586Z,79.26
2023-01-26T06:18:20.965Z,81.23
2023-01-26T06:20:48.964Z,81.66
2023-01-26T06:23:19.742Z,80.53
2023-01-26T06:25:47.595Z,80.06
2023-01-26T06:28:15.369Z,79.09
2023-01-26T06:30:47.485Z,76.33
2023-01-26T06:33:15.348Z,76.08
2023-01-26T06:35:48.230Z,76.63
2023-01-26T06:38:16.497Z,77.48
2023-01-26T06:40:45.831Z,78.83
2023-01-26T06:43:13.869Z,79.29
2023-01-26T06:45:42.023Z,79.65
2023-01-26T06:48:13.904Z,79.49
2023-01-26T06:50:42.443Z,79.63
2023-01-26T06:53:28.439Z,80.17
2023-01-26T06:55:56.343Z,79.68
2023-01-26T06:58:24.419Z,79.64
2023-01-26T07:00:53.073Z,78.44
2023-01-26T07:03:22.517Z,77.66
2023-01-26T07:05:51.696Z,77.34
2023-01-26T07:08:22.161Z,76.51
2023-01-26T07:10:53.442Z,79.38
2023-01-26T07:13:21.397Z,81.03
2023-01-26T07:15:49.978Z,81.44
2023-01-26T07:18:22.041Z,80.65
2023-01-26T07:20:51.902Z,79.26
2023-01-26T07:23:20.030Z,76.59
2023-01-26T07:25:48.608Z,76.91
2023-01-26T07:28:39.241Z,75.56
2023-01-26T07:31:12.212Z,74.72
2023-01-26T07:33:40.387Z,74.83
2023-01-26T07:36:11.055Z,75.65
2023-01-26T07:38:44.281Z,76.61
2023-01-26T07:41:16.576Z,76.54
2023-01-26T07:43:47.436Z,76.84
2023-01-26T07:46:15.479Z,76.63
2023-01-26T07:48:43.599Z,77.01
2023-01-26T07:51:18.315Z,79.31
2023-01-26T07:53:49.943Z,77.28
2023-01-26T07:56:19.672Z,80.25
2023-01-26T07:58:55.777Z,79.41
2023-01-26T08:01:24.158Z,76.99
2023-01-26T08:03:59.111Z,76.13
2023-01-26T08:06:28.980Z,76.05
2023-01-26T08:09:00.422Z,77.11
2023-01-26T08:11:28.430Z,78.28
2023-01-26T08:13:57.367Z,75.81
2023-01-26T08:16:34.709Z,77.18
2023-01-26T08:19:03.293Z,77.29
2023-01-26T08:21:33.730Z,78.10
2023-01-26T08:24:03.727Z,79.88
2023-01-26T08:26:32.365Z,79.39
2023-01-26T08:29:01.967Z,76.73
2023-01-26T08:31:33.705Z,75.54
2023-01-26T08:34:01.840Z,74.92
2023-01-26T08:36:30.060Z,73.99
2023-01-26T08:38:59.306Z,72.50
2023-01-26T08:41:27.939Z,73.19
2023-01-26T08:43:59.313Z,77.25
2023-01-26T08:46:27.692Z,81.52
2023-01-26T08:48:55.784Z,82.09
2023-01-26T08:51:26.633Z,81.24
2023-01-26T08:53:54.892Z,80.63
2023-01-26T08:56:27.700Z,80.01
2023-01-26T08:58:58.816Z,78.88
2023-01-26T09:01:27.165Z,80.10
2023-01-26T09:03:56.582Z,80.71
2023-01-26T09:06:30.685Z,81.63
2023-01-26T09:09:01.760Z,82.43
2023-01-26T09:11:37.777Z,82.97
2023-01-26T09:14:07.377Z,83.79
2023-01-26T09:16:38.000Z,81.47
2023-01-26T09:19:06.387Z,80.44
2023-01-26T09:21:46.985Z,81.60
2023-01-26T09:24:20.343Z,82.08
2023-01-26T09:26:50.366Z,82.04
2023-01-26T09:29:20.450Z,80.73
2023-01-26T09:31:48.442Z,80.99
2023-01-26T09:34:18.837Z,78.63
2023-01-26T09:36:49.539Z,77.62
2023-01-26T09:39:18.330Z,80.34
2023-01-26T09:42:23.106Z,77.47
2023-01-26T09:45:00.648Z,80.02
2023-01-26T09:47:49.263Z,80.00
2023-01-26T09:50:20.869Z,76.11
2023-01-26T09:52:53.833Z,75.34
2023-01-26T09:55:24.876Z,73.57
2023-01-26T09:57:58.270Z,72.83
2023-01-26T10:00:30.310Z,72.38
2023-01-26T10:03:07.842Z,72.52
2023-01-26T10:05:41.966Z,71.92
2023-01-26T10:08:15.163Z,73.14
2023-01-26T10:10:46.188Z,75.37
2023-01-26T10:13:18.236Z,77.88
2023-01-26T10:15:50.633Z,79.29
2023-01-26T10:18:24.329Z,78.96
2023-01-26T10:20:54.647Z,74.69
2023-01-26T10:23:24.698Z,76.41
2023-01-26T10:25:56.289Z,74.05
2023-01-26T10:28:29.996Z,73.40
2023-01-26T10:30:59.083Z,72.64
2023-01-26T10:33:34.194Z,72.25
2023-01-26T10:36:06.212Z,75.01
2023-01-26T10:38:42.697Z,73.58
2023-01-26T10:41:24.769Z,72.45
2023-01-26T10:44:10.810Z,72.91
2023-01-26T10:46:41.223Z,73.64
2023-01-26T10:49:16.975Z,72.70
2023-01-26T10:51:46.502Z,73.33
2023-01-26T10:54:16.991Z,74.63
2023-01-26T10:56:46.492Z,74.29
2023-01-26T10:59:22.733Z,76.36
2023-01-26T11:01:58.043Z,74.29
2023-01-26T11:04:26.855Z,73.44
2023-01-26T11:06:58.246Z,74.13
2023-01-26T11:09:29.869Z,75.74
2023-01-26T11:12:02.927Z,75.96
2023-01-26T11:14:36.928Z,75.12
2023-01-26T11:17:17.656Z,75.71
2023-01-26T11:20:13.832Z,76.74
2023-01-26T11:22:48.497Z,79.82
2023-01-26T11:25:34.803Z,79.22
2023-01-26T11:28:16.180Z,79.91
2023-01-26T11:30:57.676Z,78.73
2023-01-26T11:33:31.250Z,81.04
2023-01-26T11:36:04.390Z,78.71
2023-01-26T11:38:41.304Z,79.93
2023-01-26T11:41:33.616Z,77.32
2023-01-26T11:44:23.054Z,77.02
2023-01-26T11:47:05.778Z,77.64
2023-01-26T11:49:48.085Z,78.39
2023-01-26T11:52:24.468Z,78.54
2023-01-26T11:55:20.576Z,79.45
2023-01-26T11:58:00.950Z,79.05
2023-01-26T12:00:33.888Z,79.05
2023-01-26T12:03:06.479Z,78.48
2023-01-26T12:05:43.968Z,78.74
2023-01-26T12:08:21.597Z,80.29
2023-01-26T12:10:52.908Z,79.23
2023-01-26T12:13:36.008Z,77.98
2023-01-26T12:16:10.485Z,77.61
2023-01-26T12:18:55.869Z,77.60
2023-01-26T12:21:36.840Z,77.00
2023-01-26T12:24:11.033Z,77.50
2023-01-26T12:26:51.799Z,77.68
2023-01-26T12:29:26.443Z,77.70
2023-01-26T12:31:59.431Z,77.87
2023-01-26T12:34:33.286Z,79.86
2023-01-26T12:37:16.837Z,77.24
2023-01-26T12:39:46.719Z,79.63
2023-01-26T12:42:21.162Z,78.32
2023-01-26T12:44:55.012Z,78.27
2023-01-26T12:47:28.250Z,77.84
2023-01-26T12:50:01.099Z,79.02
2023-01-26T12:52:33.224Z,77.92
2023-01-26T12:55:05.005Z,76.45
2023-01-26T12:57:38.310Z,76.12
2023-01-26T13:00:10.303Z,76.66
2023-01-26T13:02:42.164Z,76.87
2023-01-26T13:05:27.897Z,77.04
2023-01-26T13:07:58.789Z,76.62
2023-01-26T13:10:29.866Z,77.40
2023-01-26T13:13:00.122Z,77.67
2023-01-26T13:15:34.145Z,78.84
2023-01-26T13:18:03.069Z,77.33
2023-01-26T13:20:53.393Z,76.51
2023-01-26T13:23:44.340Z,76.92
2023-01-26T13:26:18.110Z,75.38
2023-01-26T13:28:57.356Z,75.38
2023-01-26T13:31:34.835Z,74.77
2023-01-26T13:34:09.002Z,77.15
2023-01-26T13:36:41.889Z,76.73
2023-01-26T13:39:14.563Z,76.61
2023-01-26T13:42:00.299Z,76.89
2023-01-26T13:44:49.567Z,76.26
2023-01-26T13:47:21.374Z,76.28
2023-01-26T13:49:50.556Z,75.91
2023-01-26T13:52:21.873Z,75.91
2023-01-26T13:54:51.055Z,79.26
2023-01-26T13:57:22.892Z,79.06
2023-01-26T13:59:53.266Z,77.77
2023-01-26T14:02:26.000Z,75.60
2023-01-26T14:04:58.177Z,75.29
2023-01-26T14:07:30.039Z,76.84
2023-01-26T14:10:01.889Z,75.43
2023-01-26T14:12:38.722Z,75.38
2023-01-26T14:15:25.862Z,74.18
2023-01-26T14:18:00.342Z,77.56
2023-01-26T14:20:35.426Z,76.39
2023-01-26T14:23:13.704Z,75.50
2023-01-26T14:25:49.325Z,76.56
2023-01-26T14:28:31.301Z,77.21
2023-01-26T14:31:02.855Z,75.19
2023-01-26T14:33:34.474Z,79.83
2023-01-26T14:36:04.507Z,77.28
2023-01-26T14:38:43.812Z,76.72
2023-01-26T14:41:15.823Z,81.42
2023-01-26T14:43:46.938Z,79.24
2023-01-26T14:46:28.944Z,79.64
2023-01-26T14:49:01.265Z,76.50
2023-01-26T14:51:33.278Z,79.92
2023-01-26T14:54:05.789Z,81.31
2023-01-26T14:56:37.348Z,78.76
2023-01-26T14:59:06.449Z,77.02
2023-01-26T15:01:34.719Z,79.01
2023-01-26T15:04:14.418Z,80.94
2023-01-26T15:06:44.002Z,84.02
2023-01-26T15:09:24.617Z,85.11
2023-01-26T15:12:15.264Z,85.05
2023-01-26T15:14:51.617Z,82.42
2023-01-26T15:17:33.001Z,80.78
2023-01-26T15:20:03.500Z,83.12
2023-01-26T15:22:39.555Z,83.62
2023-01-26T15:25:19.317Z,82.86
2023-01-26T15:27:51.638Z,82.22
2023-01-26T15:30:21.955Z,85.29
2023-01-26T15:32:51.913Z,81.98
2023-01-26T15:35:23.746Z,83.12
2023-01-26T15:38:01.195Z,81.08
2023-01-26T15:40:32.807Z,79.38
2023-01-26T15:43:12.701Z,78.77
2023-01-26T15:45:42.184Z,79.47
2023-01-26T15:48:10.115Z,80.79
2023-01-26T15:50:40.864Z,82.64
2023-01-26T15:53:13.453Z,83.72
2023-01-26T15:55:44.586Z,84.57
2023-01-26T15:58:14.863Z,85.76
2023-01-26T16:00:48.644Z,83.24
2023-01-26T16:03:18.728Z,82.58
2023-01-26T16:05:48.056Z,81.32
2023-01-26T16:08:18.234Z,83.55
2023-01-26T16:10:50.146Z,82.00
2023-01-26T16:13:21.068Z,80.65
2023-01-26T16:15:53.399Z,78.38
2023-01-26T16:18:24.861Z,79.51
2023-01-26T16:20:54.399Z,80.97
2023-01-26T16:23:28.615Z,81.46
2023-01-26T16:26:00.667Z,80.54
2023-01-26T16:28:32.272Z,81.01
2023-01-26T16:31:02.534Z,82.32
2023-01-26T16:33:34.548Z,80.32
2023-01-26T16:36:04.573Z,79.35
2023-01-26T16:38:35.783Z,81.10
2023-01-26T16:41:05.564Z,78.45
2023-01-26T16:43:33.746Z,77.96
2023-01-26T16:46:04.079Z,78.41
2023-01-26T16:48:35.019Z,78.35
2023-01-26T16:51:13.779Z,77.13
2023-01-26T16:53:42.850Z,79.36
2023-01-26T16:56:15.008Z,81.70
2023-01-26T16:58:46.741Z,84.19
2023-01-26T17:01:21.385Z,83.75
2023-01-26T17:03:49.553Z,83.07
2023-01-26T17:06:20.194Z,83.83
2023-01-26T17:08:48.363Z,83.44
2023-01-26T17:11:19.351Z,85.23
2023-01-26T17:13:49.685Z,85.92
2023-01-26T17:16:28.616Z,84.97
2023-01-26T17:18:58.177Z,87.69
2023-01-26T17:21:27.541Z,87.89
2023-01-26T17:23:57.008Z,86.42
2023-01-26T17:26:28.658Z,85.24
2023-01-26T17:28:59.588Z,86.17
2023-01-26T17:31:28.636Z,87.04
2023-01-26T17:33:59.074Z,85.68
2023-01-26T17:36:31.587Z,85.35
2023-01-26T17:38:59.967Z,87.54
2023-01-26T17:41:30.362Z,86.10
2023-01-26T17:43:58.294Z,86.26
2023-01-26T17:46:32.224Z,87.48
2023-01-26T17:49:01.984Z,86.36
2023-01-26T17:51:33.988Z,87.32
2023-01-26T17:54:02.696Z,87.48
2023-01-26T17:56:33.307Z,86.50
2023-01-26T17:59:01.284Z,88.52
2023-01-26T18:01:29.344Z,87.33
2023-01-26T18:03:58.091Z,85.51
2023-01-26T18:06:25.901Z,86.45
2023-01-26T18:08:54.398Z,86.15
2023-01-26T18:11:24.095Z,84.30
2023-01-26T18:13:55.524Z,84.28
2023-01-26T18:16:24.498Z,83.28
2023-01-26T18:19:05.103Z,82.29
2023-01-26T18:21:35.011Z,82.51
2023-01-26T18:24:05.001Z,82.81
2023-01-26T18:26:35.355Z,80.96
2023-01-26T18:29:05.490Z,81.28
2023-01-26T18:31:40.815Z,84.85
2023-01-26T18:34:09.558Z,83.81
2023-01-26T18:36:40.542Z,82.56
2023-01-26T18:39:12.709Z,82.27
2023-01-26T18:41:43.273Z,84.17
2023-01-26T18:44:12.624Z,84.34
2023-01-26T18:46:45.824Z,85.46
2023-01-26T18:49:13.704Z,83.72
2023-01-26T18:51:47.828Z,84.20
2023-01-26T18:54:16.121Z,83.56
2023-01-26T18:56:45.047Z,83.90
2023-01-26T18:59:14.316Z,83.25
2023-01-26T19:01:43.707Z,84.72
2023-01-26T19:04:12.515Z,82.67
2023-01-26T19:06:40.389Z,82.93
2023-01-26T19:09:11.535Z,82.77
2023-01-26T19:11:43.806Z,84.87
2023-01-26T19:14:11.643Z,84.40
2023-01-26T19:16:44.648Z,86.08
2023-01-26T19:19:15.546Z,86.00
2023-01-26T19:21:43.458Z,85.10
2023-01-26T19:24:11.468Z,83.89
2023-01-26T19:26:43.263Z,86.43
2023-01-26T19:29:11.779Z,87.26
2023-01-26T19:31:42.438Z,85.87
2023-01-26T19:34:13.616Z,86.20
2023-01-26T19:36:41.733Z,86.37
2023-01-26T19:39:14.136Z,84.03
2023-01-26T19:41:46.621Z,84.54
2023-01-26T19:44:15.115Z,86.04
2023-01-26T19:46:44.679Z,84.93
2023-01-26T19:49:15.275Z,83.06
2023-01-26T19:51:43.096Z,83.55
2023-01-26T19:54:16.105Z,83.80
2023-01-26T19:56:46.277Z,83.79
2023-01-26T19:59:14.191Z,85.79
2023-01-26T20:01:47.671Z,85.75
2023-01-26T20:04:22.099Z,84.32
2023-01-26T20:06:51.028Z,84.55
2023-01-26T20:09:18.847Z,83.23
2023-01-26T20:11:49.886Z,83.99
2023-01-26T20:14:20.617Z,81.07
2023-01-26T20:16:48.644Z,81.51
2023-01-26T20:19:18.088Z,84.19
2023-01-26T20:21:48.316Z,85.26
2023-01-26T20:24:17.089Z,84.14
2023-01-26T20:26:45.475Z,83.96
2023-01-26T20:29:15.900Z,85.26
2023-01-26T20:31:44.500Z,84.34
2023-01-26T20:34:16.060Z,86.43
2023-01-26T20:36:46.196Z,100.00
2023-01-26T20:39:16.633Z,100.00
2023-01-26T20:41:44.610Z,83.76
2023-01-26T20:44:12.652Z,83.34
2023-01-26T20:46:45.217Z,82.30
2023-01-26T20:49:15.642Z,84.40
2023-01-26T20:51:45.982Z,84.81
2023-01-26T20:54:28.530Z,84.33
2023-01-26T20:57:01.972Z,81.81
2023-01-26T20:59:29.900Z,82.60
2023-01-26T21:01:58.000Z,84.71
2023-01-26T21:04:36.161Z,83.54
2023-01-26T21:07:08.074Z,82.88
2023-01-26T21:09:36.162Z,80.51
2023-01-26T21:12:04.322Z,82.19
2023-01-26T21:14:37.015Z,83.70
2023-01-26T21:17:05.423Z,84.39
2023-01-26T21:19:36.868Z,83.52
2023-01-26T21:22:09.090Z,82.74
2023-01-26T21:24:47.624Z,81.48
2023-01-26T21:27:15.521Z,81.28
2023-01-26T21:29:46.862Z,80.97
2023-01-26T21:32:19.464Z,81.42
2023-01-26T21:34:49.470Z,83.33
2023-01-26T21:37:18.672Z,81.27
2023-01-26T21:39:46.564Z,81.32
2023-01-26T21:42:17.119Z,79.17
2023-01-26T21:45:04.034Z,80.29
2023-01-26T21:47:32.008Z,80.23
2023-01-26T21:50:03.189Z,80.51
2023-01-26T21:52:50.100Z,81.01
2023-01-26T21:55:18.098Z,80.51
2023-01-26T21:58:20.605Z,81.22
2023-01-26T22:00:48.512Z,79.64
2023-01-26T22:03:16.337Z,79.53
2023-01-26T22:05:56.907Z,80.67
2023-01-26T22:08:33.830Z,80.14
2023-01-26T22:11:01.748Z,79.82
2023-01-26T22:13:32.634Z,78.71
2023-01-26T22:16:04.289Z,78.54
2023-01-26T22:18:32.484Z,78.50
2023-01-26T22:21:02.940Z,75.75
2023-01-26T22:23:38.924Z,76.31
2023-01-26T22:26:15.395Z,78.93
2023-01-26T22:28:44.431Z,78.67
2023-01-26T22:31:31.123Z,75.67
2023-01-26T22:34:05.305Z,78.34
2023-01-26T22:36:34.684Z,79.83
2023-01-26T22:39:06.400Z,77.69
2023-01-26T22:41:38.077Z,77.96
2023-01-26T22:44:06.389Z,75.31
2023-01-26T22:46:34.460Z,76.92
2023-01-26T22:49:05.322Z,76.63
2023-01-26T22:51:39.404Z,76.50
2023-01-26T22:54:13.613Z,74.71
2023-01-26T22:56:44.038Z,74.42
2023-01-26T22:59:12.203Z,73.70
2023-01-26T23:01:42.895Z,74.51
2023-01-26T23:04:16.678Z,73.15
2023-01-26T23:06:47.196Z,74.26
2023-01-26T23:09:18.380Z,75.99
2023-01-26T23:11:49.394Z,74.12
2023-01-26T23:14:17.263Z,74.37
2023-01-26T23:16:45.212Z,75.43
2023-01-26T23:19:13.192Z,73.27
2023-01-26T23:21:41.820Z,73.11
2023-01-26T23:24:10.085Z,72.78
2023-01-26T23:26:39.671Z,72.31
2023-01-26T23:29:08.255Z,72.59
2023-01-26T23:31:38.570Z,73.14
2023-01-26T23:34:10.236Z,76.11
2023-01-26T23:36:38.092Z,76.30
2023-01-26T23:39:06.329Z,73.91
2023-01-26T23:41:34.475Z,73.40
2023-01-26T23:44:03.712Z,73.30
2023-01-26T23:46:31.680Z,72.38
2023-01-26T23:49:02.619Z,74.81
2023-01-26T23:51:30.524Z,73.88
2023-01-26T23:53:58.487Z,72.50
2023-01-26T23:56:26.227Z,72.53
2023-01-26T23:58:54.148Z,72.48
